Archival Weather

Chicago O'Hare International

Chicago, Illinois (KORD)

Report from: Saturday, April 23, 2022 3:51 PM CDT
Current time: Wednesday, September 28, 2022 3:52 AM CDT

Current weather
Weather history
Weather forecast

Temperature27.8°C (82.0°F)
Heat index28.0°C (82.3°F)
Dew point13.9°C (57.0°F)
Winds 18 kts (9.3 m/s, 20.7 mph) South (190°)
Wind gusts 31 kts (15.9 m/s, 35.7 mph)
Peak wind 37 kts (19 m/s, 42.6 mph) South (180°) at 15:27
Visibility10 mi. (16.1 km)
Clouds Scattered clouds 16,000 ft. (4,877 m)
Ceiling: Broken clouds 25,000 ft. (7,620 m)
Altimeter29.81 in.Hg (1009 mB)
Relative humidity43 %
Density altitude1,822 ft. (555 m)
Sea-level pressure100.9 kPa (1009 mB, 29.80 in.Hg)
Remarks System requires maintenance
Automated weather observing station with precipitation discriminator
Pressure falling more quickly
Flight conditions Visual Meteorological Conditions
Raw dataKORD 232051Z 19018G31KT 10SM SCT160 BKN250 28/14 A2981 RMK AO2 PK WND 18037/2027 SLP091 T02780139 58025 $
An error has occurred. This application may no longer respond until reloaded. Reload 🗙